Accueil
METAR-TAF:

METAR-TAF

Aéroports :

Aéroport international de Lattaquié

Lattaquié, Syrie

latitude: 35-32N, longitude: 035-46E, altitude: 7 m

Observation

Le bulletin a été fait il y a 33 minutes, à 05:00 UTC
Vent 10 kt de sud-ouest
Température 25°C
Humidité 79%
Pression 1012 hPa
Visibilité 10 km ou plus
Nuages épars à une hauteur de 2600 ft
Nuages épars à une hauteur de 3000 ft

METAR: OSLK 220500Z 23010KT 9999 SCT026 TCU SCT030 25/21 Q1012

Heure: 08:33 (05:33 UTC)

Prévision

Prévision valable du 22 à 00 UTC au 22 à 24 UTC
Vent 10 kt de sud-ouest
Visibilité 10 km ou plus
Quelques nuages à une hauteur de 2600 ft
Nuages épars à une hauteur de 3000 ft
Nuages épars à une hauteur de 10000 ft

TAF: OSLK 2200/2224 22010KT 9999 FEW026 TCU SCT030 SCT100

Observations et prévisions météorologiques de plus de 4000 aéroports (messages METAR et TAF).

Les stations disponibles sont représentées par des disques jaunes et rouges sur la carte.

Passer la souris dessus pour voir le nom de la station.

Cliquer dessus pour voir les observations et prévisions météorologiques.

Pour changer de carte: cliquez sur les boutons verts avec une croix noire pour zoomer, sur le bouton vert avec un tiret pour effectuer un zoom arrière, ou sur les flèches vertes pour les cartes adjacentes.


METAR-TAF: